UCT Elwood — V7HW9 — position and weather

sailwx.info

Track history (hours):
 
Tides and Currents Weather Stations Pressure Air Temp Water Temp Dewpoint Dewpoint Depression Visibility Wind Speed Wind Dir Waves Ship Positions

UCT Elwood

Last reported at 2018-May-07 02:40 UTC. Time now 2018-May-24 06:25 UTC.
Position S 32°37' E 030°01'.
Warning: this ship's position is 17 days out of date.

Length 198 m; draft 6.6 m.

Type: Cargo ship. MMSI: 538006163.

Date/timePositionNaut miles runAvg speedWind from/ knotsBaromVisibWave heightAir tempDewpointWater temp
2018-May-07 02:40S 32°37' E 030°01'214.2
2018-May-07 02:30S 32°36' E 030°04'714.1
2018-May-07 02:00S 32°33' E 030°11'714.1
2018-May-07 01:30S 32°30' E 030°19'714.2
2018-May-07 01:00S 32°27' E 030°26'714.2
2018-May-07 00:30S 32°24' E 030°34'714.0
2018-May-07 00:00S 32°21' E 030°41'714.1
2018-May-06 23:30S 32°17' E 030°49'714.0
2018-May-06 23:00S 32°14' E 030°56'713.9
2018-May-06 22:30S 32°11' E 031°03'713.7
2018-May-06 22:00S 32°08' E 031°11'713.7
2018-May-06 21:30S 32°05' E 031°18'713.9
2018-May-06 21:00S 32°02' E 031°25'713.8
2018-May-06 20:30S 31°59' E 031°32'713.7
2018-May-06 20:00S 31°56' E 031°40'713.7
2018-May-06 19:30S 31°53' E 031°47'713.8
2018-May-06 19:01S 31°50' E 031°54'713.9
2018-May-06 18:31S 31°47' E 032°02'713.8
2018-May-06 18:00S 31°44' E 032°09'713.8
2018-May-06 17:31S 31°41' E 032°16'713.8
2018-May-06 17:00S 31°38' E 032°23'813.8
2018-May-06 16:26S 31°34' E 032°32'613.7
2018-May-06 15:58S 31°31' E 032°38'913.5
2018-May-06 15:19S 31°27' E 032°48'413.3
2018-May-06 15:00S 31°25' E 032°52'713.0
2018-May-06 14:30S 31°23' E 032°59'1012.7
2018-May-06 13:43S 31°18' E 033°09'312.9
2018-May-06 13:30S 31°17' E 033°13'1712.8
2018-May-06 12:08S 31°09' E 033°31'412.9
2018-May-06 11:49S 31°08' E 033°35'412.8
2018-May-06 11:30S 31°06' E 033°39'612.5
2018-May-06 11:00S 31°03' E 033°46'612.8
2018-May-06 10:30S 31°00' E 033°52'712.7
2018-May-06 09:57S 30°57' E 033°60'612.7
2018-May-06 09:27S 30°54' E 034°07'612.7
2018-May-06 09:00S 30°52' E 034°12'1312.8
2018-May-06 08:01S 30°46' E 034°26'012.8
2018-May-06 08:00S 30°46' E 034°26'  
Track history (hours):
 
Tides and Currents Weather Stations Pressure Air Temp Water Temp Dewpoint Dewpoint Depression Visibility Wind Speed Wind Dir Waves Ship Positions

UCT Elwood

Last reported at 2018-May-07 02:40 UTC. Time now 2018-May-24 06:25 UTC.
Position S 32°37' E 030°01'.
Warning: this ship's position is 17 days out of date.

Length 198 m; draft 6.6 m.

Type: Cargo ship. MMSI: 538006163.

Date/timePositionNaut miles runAvg speedWind from/ knotsBaromVisibWave heightAir tempDewpointWater temp
2018-May-07 02:40S 32°37' E 030°01'214.2
2018-May-07 02:30S 32°36' E 030°04'714.1
2018-May-07 02:00S 32°33' E 030°11'714.1
2018-May-07 01:30S 32°30' E 030°19'714.2
2018-May-07 01:00S 32°27' E 030°26'714.2
2018-May-07 00:30S 32°24' E 030°34'714.0
2018-May-07 00:00S 32°21' E 030°41'714.1
2018-May-06 23:30S 32°17' E 030°49'714.0
2018-May-06 23:00S 32°14' E 030°56'713.9
2018-May-06 22:30S 32°11' E 031°03'713.7
2018-May-06 22:00S 32°08' E 031°11'713.7
2018-May-06 21:30S 32°05' E 031°18'713.9
2018-May-06 21:00S 32°02' E 031°25'713.8
2018-May-06 20:30S 31°59' E 031°32'713.7
2018-May-06 20:00S 31°56' E 031°40'713.7
2018-May-06 19:30S 31°53' E 031°47'713.8
2018-May-06 19:01S 31°50' E 031°54'713.9
2018-May-06 18:31S 31°47' E 032°02'713.8
2018-May-06 18:00S 31°44' E 032°09'713.8
2018-May-06 17:31S 31°41' E 032°16'713.8
2018-May-06 17:00S 31°38' E 032°23'813.8
2018-May-06 16:26S 31°34' E 032°32'613.7
2018-May-06 15:58S 31°31' E 032°38'913.5
2018-May-06 15:19S 31°27' E 032°48'413.3
2018-May-06 15:00S 31°25' E 032°52'713.0
2018-May-06 14:30S 31°23' E 032°59'1012.7
2018-May-06 13:43S 31°18' E 033°09'312.9
2018-May-06 13:30S 31°17' E 033°13'1712.8
2018-May-06 12:08S 31°09' E 033°31'412.9
2018-May-06 11:49S 31°08' E 033°35'412.8
2018-May-06 11:30S 31°06' E 033°39'612.5
2018-May-06 11:00S 31°03' E 033°46'612.8
2018-May-06 10:30S 31°00' E 033°52'712.7
2018-May-06 09:57S 30°57' E 033°60'612.7
2018-May-06 09:27S 30°54' E 034°07'612.7
2018-May-06 09:00S 30°52' E 034°12'1312.8
2018-May-06 08:01S 30°46' E 034°26'012.8
2018-May-06 08:00S 30°46' E 034°26'  

Dump ship's entire track history